sensor_id;sensor_type;location;lat;lon;timestamp;temperature;humidity
7796;DHT22;3942;51.518;6.912;2022-08-07T00:03:56;17.90;99.90
7796;DHT22;3942;51.518;6.912;2022-08-07T00:09:00;17.80;99.90
7796;DHT22;3942;51.518;6.912;2022-08-07T00:14:02;17.70;99.90
7796;DHT22;3942;51.518;6.912;2022-08-07T00:19:03;17.60;99.90
7796;DHT22;3942;51.518;6.912;2022-08-07T00:24:07;17.50;99.90
7796;DHT22;3942;51.518;6.912;2022-08-07T00:29:09;17.50;99.90
7796;DHT22;3942;51.518;6.912;2022-08-07T00:34:11;17.50;99.90
7796;DHT22;3942;51.518;6.912;2022-08-07T00:39:14;17.40;99.90
7796;DHT22;3942;51.518;6.912;2022-08-07T00:44:16;17.40;99.90
7796;DHT22;3942;51.518;6.912;2022-08-07T00:49:19;17.30;99.90
7796;DHT22;3942;51.518;6.912;2022-08-07T00:54:22;17.10;99.90
7796;DHT22;3942;51.518;6.912;2022-08-07T00:59:24;17.00;99.90
7796;DHT22;3942;51.518;6.912;2022-08-07T01:04:26;17.00;99.90
7796;DHT22;3942;51.518;6.912;2022-08-07T01:09:29;16.90;99.90
7796;DHT22;3942;51.518;6.912;2022-08-07T01:14:31;16.90;99.90
7796;DHT22;3942;51.518;6.912;2022-08-07T01:19:33;16.80;99.90
7796;DHT22;3942;51.518;6.912;2022-08-07T01:24:37;16.60;99.90
7796;DHT22;3942;51.518;6.912;2022-08-07T01:29:40;16.50;99.90
7796;DHT22;3942;51.518;6.912;2022-08-07T01:34:43;16.50;99.90
7796;DHT22;3942;51.518;6.912;2022-08-07T01:39:47;16.40;99.90
7796;DHT22;3942;51.518;6.912;2022-08-07T01:44:49;16.50;99.90
7796;DHT22;3942;51.518;6.912;2022-08-07T01:49:52;16.50;99.90
7796;DHT22;3942;51.518;6.912;2022-08-07T01:54:55;16.50;99.90
7796;DHT22;3942;51.518;6.912;2022-08-07T02:00:01;16.50;99.90
7796;DHT22;3942;51.518;6.912;2022-08-07T02:05:07;16.40;99.90
7796;DHT22;3942;51.518;6.912;2022-08-07T02:10:12;16.40;99.90
7796;DHT22;3942;51.518;6.912;2022-08-07T02:15:15;16.40;99.90
7796;DHT22;3942;51.518;6.912;2022-08-07T02:20:22;16.30;99.90
7796;DHT22;3942;51.518;6.912;2022-08-07T02:25:27;16.30;99.90
7796;DHT22;3942;51.518;6.912;2022-08-07T02:30:31;16.20;99.90
7796;DHT22;3942;51.518;6.912;2022-08-07T02:35:36;16.10;99.90
7796;DHT22;3942;51.518;6.912;2022-08-07T02:40:40;16.00;99.90
7796;DHT22;3942;51.518;6.912;2022-08-07T02:45:44;16.00;99.90
7796;DHT22;3942;51.518;6.912;2022-08-07T02:50:49;15.90;99.90
7796;DHT22;3942;51.518;6.912;2022-08-07T02:55:55;15.90;99.90
7796;DHT22;3942;51.518;6.912;2022-08-07T03:00:58;15.80;99.90
7796;DHT22;3942;51.518;6.912;2022-08-07T03:06:01;15.80;99.90
7796;DHT22;3942;51.518;6.912;2022-08-07T03:11:05;15.70;99.90
7796;DHT22;3942;51.518;6.912;2022-08-07T03:16:08;15.70;99.90
7796;DHT22;3942;51.518;6.912;2022-08-07T03:21:10;15.70;99.90
7796;DHT22;3942;51.518;6.912;2022-08-07T03:26:16;15.60;99.90
7796;DHT22;3942;51.518;6.912;2022-08-07T03:31:20;15.60;99.90
7796;DHT22;3942;51.518;6.912;2022-08-07T03:36:24;15.60;99.90
7796;DHT22;3942;51.518;6.912;2022-08-07T03:41:28;15.60;99.90
7796;DHT22;3942;51.518;6.912;2022-08-07T03:46:30;15.50;99.90
7796;DHT22;3942;51.518;6.912;2022-08-07T03:51:33;15.40;99.90
7796;DHT22;3942;51.518;6.912;2022-08-07T03:56:38;15.40;99.90
7796;DHT22;3942;51.518;6.912;2022-08-07T04:01:42;15.40;99.90
7796;DHT22;3942;51.518;6.912;2022-08-07T04:06:44;15.40;99.90
7796;DHT22;3942;51.518;6.912;2022-08-07T04:11:48;15.40;99.90
7796;DHT22;3942;51.518;6.912;2022-08-07T04:16:50;15.20;99.90
7796;DHT22;3942;51.518;6.912;2022-08-07T04:21:52;15.20;99.90
7796;DHT22;3942;51.518;6.912;2022-08-07T04:26:56;15.20;99.90
7796;DHT22;3942;51.518;6.912;2022-08-07T04:31:59;15.30;99.90
7796;DHT22;3942;51.518;6.912;2022-08-07T04:37:01;15.30;99.90
7796;DHT22;3942;51.518;6.912;2022-08-07T04:42:06;15.40;99.90
7796;DHT22;3942;51.518;6.912;2022-08-07T04:47:11;15.60;99.90
7796;DHT22;3942;51.518;6.912;2022-08-07T04:52:23;15.80;99.90
7796;DHT22;3942;51.518;6.912;2022-08-07T04:57:36;15.90;99.90
7796;DHT22;3942;51.518;6.912;2022-08-07T05:02:49;16.10;99.90
7796;DHT22;3942;51.518;6.912;2022-08-07T05:07:57;16.30;99.90
7796;DHT22;3942;51.518;6.912;2022-08-07T05:13:07;16.50;99.90
7796;DHT22;3942;51.518;6.912;2022-08-07T05:18:15;16.70;99.90
7796;DHT22;3942;51.518;6.912;2022-08-07T05:23:21;16.90;99.90
7796;DHT22;3942;51.518;6.912;2022-08-07T05:28:26;17.10;99.90
7796;DHT22;3942;51.518;6.912;2022-08-07T05:33:30;17.20;99.90
7796;DHT22;3942;51.518;6.912;2022-08-07T05:38:35;17.40;99.90
7796;DHT22;3942;51.518;6.912;2022-08-07T05:43:40;17.60;99.90
7796;DHT22;3942;51.518;6.912;2022-08-07T05:48:43;17.90;99.90
7796;DHT22;3942;51.518;6.912;2022-08-07T05:53:46;18.10;99.90
7796;DHT22;3942;51.518;6.912;2022-08-07T05:58:49;18.60;99.90
7796;DHT22;3942;51.518;6.912;2022-08-07T06:03:53;18.70;99.90
7796;DHT22;3942;51.518;6.912;2022-08-07T06:08:56;19.10;99.90
7796;DHT22;3942;51.518;6.912;2022-08-07T06:13:59;19.20;99.90
7796;DHT22;3942;51.518;6.912;2022-08-07T06:19:02;19.20;99.90
7796;DHT22;3942;51.518;6.912;2022-08-07T06:24:05;19.60;99.90
7796;DHT22;3942;51.518;6.912;2022-08-07T06:29:08;19.80;99.90
7796;DHT22;3942;51.518;6.912;2022-08-07T06:34:10;20.10;99.90
7796;DHT22;3942;51.518;6.912;2022-08-07T06:39:12;20.30;99.90
7796;DHT22;3942;51.518;6.912;2022-08-07T06:44:16;20.70;99.90
7796;DHT22;3942;51.518;6.912;2022-08-07T06:49:18;21.20;99.90
7796;DHT22;3942;51.518;6.912;2022-08-07T06:54:21;21.50;99.90
7796;DHT22;3942;51.518;6.912;2022-08-07T06:59:30;21.60;99.90
7796;DHT22;3942;51.518;6.912;2022-08-07T07:04:32;21.90;99.90
7796;DHT22;3942;51.518;6.912;2022-08-07T07:09:34;21.90;99.90
7796;DHT22;3942;51.518;6.912;2022-08-07T07:14:46;21.70;99.90
7796;DHT22;3942;51.518;6.912;2022-08-07T07:19:53;21.60;99.90
7796;DHT22;3942;51.518;6.912;2022-08-07T07:24:57;21.90;99.90
7796;DHT22;3942;51.518;6.912;2022-08-07T07:30:03;22.60;99.90
7796;DHT22;3942;51.518;6.912;2022-08-07T07:35:07;22.60;99.90
7796;DHT22;3942;51.518;6.912;2022-08-07T07:40:14;23.20;99.90
7796;DHT22;3942;51.518;6.912;2022-08-07T07:45:21;23.60;99.90
7796;DHT22;3942;51.518;6.912;2022-08-07T07:50:27;23.90;99.90
7796;DHT22;3942;51.518;6.912;2022-08-07T07:55:29;23.90;97.90
7796;DHT22;3942;51.518;6.912;2022-08-07T08:00:33;24.10;95.20
7796;DHT22;3942;51.518;6.912;2022-08-07T08:05:36;24.60;95.60
7796;DHT22;3942;51.518;6.912;2022-08-07T08:10:39;24.60;92.60
7796;DHT22;3942;51.518;6.912;2022-08-07T08:15:45;24.70;94.80
7796;DHT22;3942;51.518;6.912;2022-08-07T08:20:47;25.10;93.20
7796;DHT22;3942;51.518;6.912;2022-08-07T08:25:50;25.50;93.30
7796;DHT22;3942;51.518;6.912;2022-08-07T08:31:16;25.90;92.60
7796;DHT22;3942;51.518;6.912;2022-08-07T08:36:23;26.10;83.30
7796;DHT22;3942;51.518;6.912;2022-08-07T08:41:30;26.10;83.00
7796;DHT22;3942;51.518;6.912;2022-08-07T08:46:41;26.20;83.60
7796;DHT22;3942;51.518;6.912;2022-08-07T08:51:51;25.70;83.90
7796;DHT22;3942;51.518;6.912;2022-08-07T08:57:01;26.30;86.10
7796;DHT22;3942;51.518;6.912;2022-08-07T09:02:11;26.50;79.80
7796;DHT22;3942;51.518;6.912;2022-08-07T09:07:18;26.50;80.80
7796;DHT22;3942;51.518;6.912;2022-08-07T09:12:45;26.20;80.30
7796;DHT22;3942;51.518;6.912;2022-08-07T09:18:01;26.30;79.00
7796;DHT22;3942;51.518;6.912;2022-08-07T09:23:12;26.00;77.40
7796;DHT22;3942;51.518;6.912;2022-08-07T09:28:28;26.20;74.30
7796;DHT22;3942;51.518;6.912;2022-08-07T09:33:51;26.80;78.60
7796;DHT22;3942;51.518;6.912;2022-08-07T09:39:04;27.60;73.50
7796;DHT22;3942;51.518;6.912;2022-08-07T09:44:20;27.60;78.10
7796;DHT22;3942;51.518;6.912;2022-08-07T09:49:41;28.10;77.00
7796;DHT22;3942;51.518;6.912;2022-08-07T09:54:48;27.70;70.20
7796;DHT22;3942;51.518;6.912;2022-08-07T10:00:05;27.50;71.00
7796;DHT22;3942;51.518;6.912;2022-08-07T10:05:28;26.80;71.30
7796;DHT22;3942;51.518;6.912;2022-08-07T10:10:39;26.40;70.80
7796;DHT22;3942;51.518;6.912;2022-08-07T10:15:56;26.00;71.00
7796;DHT22;3942;51.518;6.912;2022-08-07T10:21:20;25.80;70.40
7796;DHT22;3942;51.518;6.912;2022-08-07T10:26:48;25.50;71.00
7796;DHT22;3942;51.518;6.912;2022-08-07T10:32:10;25.40;71.10
7796;DHT22;3942;51.518;6.912;2022-08-07T10:37:28;25.50;73.20
7796;DHT22;3942;51.518;6.912;2022-08-07T10:42:36;24.70;71.00
7796;DHT22;3942;51.518;6.912;2022-08-07T10:47:44;24.90;73.80
7796;DHT22;3942;51.518;6.912;2022-08-07T10:52:58;24.60;73.80
7796;DHT22;3942;51.518;6.912;2022-08-07T10:58:08;24.90;73.80
7796;DHT22;3942;51.518;6.912;2022-08-07T11:03:16;25.10;75.40
7796;DHT22;3942;51.518;6.912;2022-08-07T11:08:31;24.90;73.90
7796;DHT22;3942;51.518;6.912;2022-08-07T11:13:39;24.50;74.20
7796;DHT22;3942;51.518;6.912;2022-08-07T11:18:47;23.90;75.80
7796;DHT22;3942;51.518;6.912;2022-08-07T11:23:58;24.10;75.20
7796;DHT22;3942;51.518;6.912;2022-08-07T11:29:06;24.20;75.80
7796;DHT22;3942;51.518;6.912;2022-08-07T11:34:18;24.40;76.20
7796;DHT22;3942;51.518;6.912;2022-08-07T11:44:38;24.10;72.10
7796;DHT22;3942;51.518;6.912;2022-08-07T11:49:59;24.20;73.10
7796;DHT22;3942;51.518;6.912;2022-08-07T11:55:12;24.10;74.20
7796;DHT22;3942;51.518;6.912;2022-08-07T12:00:18;24.40;73.60
7796;DHT22;3942;51.518;6.912;2022-08-07T12:05:29;24.20;71.90
7796;DHT22;3942;51.518;6.912;2022-08-07T12:10:38;24.40;73.30
7796;DHT22;3942;51.518;6.912;2022-08-07T12:15:47;24.50;73.40
7796;DHT22;3942;51.518;6.912;2022-08-07T12:20:59;24.50;74.80
7796;DHT22;3942;51.518;6.912;2022-08-07T12:26:10;24.70;74.70
7796;DHT22;3942;51.518;6.912;2022-08-07T12:31:21;24.70;74.60
7796;DHT22;3942;51.518;6.912;2022-08-07T12:36:25;24.90;74.30
7796;DHT22;3942;51.518;6.912;2022-08-07T12:41:31;24.80;75.70
7796;DHT22;3942;51.518;6.912;2022-08-07T12:46:45;24.40;73.40
7796;DHT22;3942;51.518;6.912;2022-08-07T12:51:59;24.40;74.00
7796;DHT22;3942;51.518;6.912;2022-08-07T12:57:04;24.30;74.10
7796;DHT22;3942;51.518;6.912;2022-08-07T13:02:21;24.50;77.80
7796;DHT22;3942;51.518;6.912;2022-08-07T13:13:19;25.10;75.50
7796;DHT22;3942;51.518;6.912;2022-08-07T13:18:30;25.10;75.30
7796;DHT22;3942;51.518;6.912;2022-08-07T13:23:42;25.20;75.40
7796;DHT22;3942;51.518;6.912;2022-08-07T13:28:56;25.20;75.60
7796;DHT22;3942;51.518;6.912;2022-08-07T13:34:09;25.20;76.40
7796;DHT22;3942;51.518;6.912;2022-08-07T13:39:20;25.20;76.70
7796;DHT22;3942;51.518;6.912;2022-08-07T13:44:36;25.30;74.00
7796;DHT22;3942;51.518;6.912;2022-08-07T13:49:43;25.00;73.40
7796;DHT22;3942;51.518;6.912;2022-08-07T13:59:50;25.30;75.40
7796;DHT22;3942;51.518;6.912;2022-08-07T14:04:59;25.20;75.40
7796;DHT22;3942;51.518;6.912;2022-08-07T14:10:02;25.20;73.50
7796;DHT22;3942;51.518;6.912;2022-08-07T14:15:09;24.90;73.50
7796;DHT22;3942;51.518;6.912;2022-08-07T14:20:18;24.90;74.80
7796;DHT22;3942;51.518;6.912;2022-08-07T14:25:25;24.90;76.10
7796;DHT22;3942;51.518;6.912;2022-08-07T14:30:30;25.00;76.20
7796;DHT22;3942;51.518;6.912;2022-08-07T14:35:35;25.10;75.50
7796;DHT22;3942;51.518;6.912;2022-08-07T14:40:39;25.20;75.80
7796;DHT22;3942;51.518;6.912;2022-08-07T14:45:47;25.30;75.20
7796;DHT22;3942;51.518;6.912;2022-08-07T14:50:51;25.30;74.80
7796;DHT22;3942;51.518;6.912;2022-08-07T14:55:55;25.30;74.10
7796;DHT22;3942;51.518;6.912;2022-08-07T15:01:02;25.10;73.10
7796;DHT22;3942;51.518;6.912;2022-08-07T15:06:06;25.00;75.30
7796;DHT22;3942;51.518;6.912;2022-08-07T15:11:10;25.10;76.80
7796;DHT22;3942;51.518;6.912;2022-08-07T15:16:15;25.20;77.50
7796;DHT22;3942;51.518;6.912;2022-08-07T15:21:19;25.10;76.60
7796;DHT22;3942;51.518;6.912;2022-08-07T15:26:30;25.20;76.90
7796;DHT22;3942;51.518;6.912;2022-08-07T15:31:35;25.20;77.20
7796;DHT22;3942;51.518;6.912;2022-08-07T15:36:39;25.00;76.10
7796;DHT22;3942;51.518;6.912;2022-08-07T15:41:56;25.10;77.10
7796;DHT22;3942;51.518;6.912;2022-08-07T15:47:03;25.10;77.70
7796;DHT22;3942;51.518;6.912;2022-08-07T15:52:08;25.10;77.60
7796;DHT22;3942;51.518;6.912;2022-08-07T15:57:14;25.20;77.70
7796;DHT22;3942;51.518;6.912;2022-08-07T16:02:25;25.10;78.10
7796;DHT22;3942;51.518;6.912;2022-08-07T16:07:31;25.10;78.30
7796;DHT22;3942;51.518;6.912;2022-08-07T16:12:48;25.10;79.10
7796;DHT22;3942;51.518;6.912;2022-08-07T16:18:00;25.00;78.70
7796;DHT22;3942;51.518;6.912;2022-08-07T16:23:15;25.10;79.30
7796;DHT22;3942;51.518;6.912;2022-08-07T16:28:39;25.10;80.30
7796;DHT22;3942;51.518;6.912;2022-08-07T16:33:45;24.90;81.10
7796;DHT22;3942;51.518;6.912;2022-08-07T16:39:11;25.00;82.60
7796;DHT22;3942;51.518;6.912;2022-08-07T16:50:09;24.90;81.90
7796;DHT22;3942;51.518;6.912;2022-08-07T16:55:18;24.90;82.20
7796;DHT22;3942;51.518;6.912;2022-08-07T17:00:32;24.90;82.00
7796;DHT22;3942;51.518;6.912;2022-08-07T17:06:10;24.90;83.30
7796;DHT22;3942;51.518;6.912;2022-08-07T17:11:25;24.90;83.10
7796;DHT22;3942;51.518;6.912;2022-08-07T17:16:41;24.90;84.10
7796;DHT22;3942;51.518;6.912;2022-08-07T17:21:47;24.80;86.30
7796;DHT22;3942;51.518;6.912;2022-08-07T17:26:57;24.70;85.50
7796;DHT22;3942;51.518;6.912;2022-08-07T17:32:04;24.80;87.00
7796;DHT22;3942;51.518;6.912;2022-08-07T17:37:17;24.80;86.20
7796;DHT22;3942;51.518;6.912;2022-08-07T17:42:32;24.70;86.60
7796;DHT22;3942;51.518;6.912;2022-08-07T17:47:46;24.70;86.40
7796;DHT22;3942;51.518;6.912;2022-08-07T17:52:55;24.70;87.00
7796;DHT22;3942;51.518;6.912;2022-08-07T17:58:02;24.70;88.50
7796;DHT22;3942;51.518;6.912;2022-08-07T18:03:17;24.50;87.70
7796;DHT22;3942;51.518;6.912;2022-08-07T18:08:26;24.40;89.70
7796;DHT22;3942;51.518;6.912;2022-08-07T18:13:38;24.40;88.60
7796;DHT22;3942;51.518;6.912;2022-08-07T18:18:44;24.30;89.10
7796;DHT22;3942;51.518;6.912;2022-08-07T18:24:10;24.30;89.80
7796;DHT22;3942;51.518;6.912;2022-08-07T18:29:22;24.30;90.70
7796;DHT22;3942;51.518;6.912;2022-08-07T18:34:45;24.30;90.90
7796;DHT22;3942;51.518;6.912;2022-08-07T18:40:00;24.20;91.30
7796;DHT22;3942;51.518;6.912;2022-08-07T18:45:09;24.10;91.40
7796;DHT22;3942;51.518;6.912;2022-08-07T18:50:33;24.00;91.20
7796;DHT22;3942;51.518;6.912;2022-08-07T18:55:53;23.90;91.60
7796;DHT22;3942;51.518;6.912;2022-08-07T19:01:15;23.90;92.00
7796;DHT22;3942;51.518;6.912;2022-08-07T19:06:28;23.70;92.80
7796;DHT22;3942;51.518;6.912;2022-08-07T19:11:45;23.50;92.90
7796;DHT22;3942;51.518;6.912;2022-08-07T19:16:51;23.50;94.50
7796;DHT22;3942;51.518;6.912;2022-08-07T19:21:58;23.40;94.60
7796;DHT22;3942;51.518;6.912;2022-08-07T19:27:06;23.30;94.50
7796;DHT22;3942;51.518;6.912;2022-08-07T19:32:11;23.10;94.70
7796;DHT22;3942;51.518;6.912;2022-08-07T19:37:19;23.10;96.00
7796;DHT22;3942;51.518;6.912;2022-08-07T19:42:24;23.30;96.60
7796;DHT22;3942;51.518;6.912;2022-08-07T19:47:29;23.00;97.00
7796;DHT22;3942;51.518;6.912;2022-08-07T19:52:31;22.90;96.90
7796;DHT22;3942;51.518;6.912;2022-08-07T19:57:37;22.80;97.60
7796;DHT22;3942;51.518;6.912;2022-08-07T20:02:42;22.70;97.80
7796;DHT22;3942;51.518;6.912;2022-08-07T20:07:46;22.60;97.60
7796;DHT22;3942;51.518;6.912;2022-08-07T20:12:52;22.50;98.40
7796;DHT22;3942;51.518;6.912;2022-08-07T20:17:56;22.30;98.70
7796;DHT22;3942;51.518;6.912;2022-08-07T20:23:01;22.30;99.40
7796;DHT22;3942;51.518;6.912;2022-08-07T20:28:06;22.30;99.80
7796;DHT22;3942;51.518;6.912;2022-08-07T20:33:11;22.40;99.90
7796;DHT22;3942;51.518;6.912;2022-08-07T20:38:18;22.30;99.90
7796;DHT22;3942;51.518;6.912;2022-08-07T20:43:25;22.10;99.90
7796;DHT22;3942;51.518;6.912;2022-08-07T20:48:31;21.90;99.90
7796;DHT22;3942;51.518;6.912;2022-08-07T20:53:33;21.90;99.90
7796;DHT22;3942;51.518;6.912;2022-08-07T20:58:38;21.60;99.90
7796;DHT22;3942;51.518;6.912;2022-08-07T21:03:46;21.60;99.90
7796;DHT22;3942;51.518;6.912;2022-08-07T21:08:53;21.60;99.90
7796;DHT22;3942;51.518;6.912;2022-08-07T21:14:04;21.40;99.90
7796;DHT22;3942;51.518;6.912;2022-08-07T21:19:08;21.30;99.90
7796;DHT22;3942;51.518;6.912;2022-08-07T21:24:15;21.20;99.90
7796;DHT22;3942;51.518;6.912;2022-08-07T21:29:22;21.10;99.90
7796;DHT22;3942;51.518;6.912;2022-08-07T21:34:30;21.10;99.90
7796;DHT22;3942;51.518;6.912;2022-08-07T21:39:38;21.00;99.90
7796;DHT22;3942;51.518;6.912;2022-08-07T21:44:49;20.90;99.90
7796;DHT22;3942;51.518;6.912;2022-08-07T21:49:58;20.60;99.90
7796;DHT22;3942;51.518;6.912;2022-08-07T21:55:02;20.60;99.90
7796;DHT22;3942;51.518;6.912;2022-08-07T22:00:11;20.50;99.90
7796;DHT22;3942;51.518;6.912;2022-08-07T22:05:15;20.50;99.90
7796;DHT22;3942;51.518;6.912;2022-08-07T22:10:21;20.20;99.90
7796;DHT22;3942;51.518;6.912;2022-08-07T22:15:30;20.10;99.90
7796;DHT22;3942;51.518;6.912;2022-08-07T22:20:40;19.90;99.90
7796;DHT22;3942;51.518;6.912;2022-08-07T22:25:51;19.80;99.90
7796;DHT22;3942;51.518;6.912;2022-08-07T22:31:01;19.70;99.90
7796;DHT22;3942;51.518;6.912;2022-08-07T22:36:18;19.70;99.90
7796;DHT22;3942;51.518;6.912;2022-08-07T22:41:27;19.70;99.90
7796;DHT22;3942;51.518;6.912;2022-08-07T22:46:54;19.60;99.90
7796;DHT22;3942;51.518;6.912;2022-08-07T22:52:39;19.50;99.90
7796;DHT22;3942;51.518;6.912;2022-08-07T23:03:27;19.40;99.90
7796;DHT22;3942;51.518;6.912;2022-08-07T23:08:41;19.30;99.90
7796;DHT22;3942;51.518;6.912;2022-08-07T23:13:56;19.10;99.90
7796;DHT22;3942;51.518;6.912;2022-08-07T23:19:10;19.00;99.90
7796;DHT22;3942;51.518;6.912;2022-08-07T23:24:38;19.10;99.90
7796;DHT22;3942;51.518;6.912;2022-08-07T23:30:06;19.00;99.90
7796;DHT22;3942;51.518;6.912;2022-08-07T23:35:14;19.00;99.90
7796;DHT22;3942;51.518;6.912;2022-08-07T23:40:29;18.80;99.90
7796;DHT22;3942;51.518;6.912;2022-08-07T23:45:39;18.70;99.90
7796;DHT22;3942;51.518;6.912;2022-08-07T23:50:48;18.80;99.90
7796;DHT22;3942;51.518;6.912;2022-08-07T23:55:57;18.70;99.90
